Time;durP1;ratioP1;P1;durP2;ratioP2;P2;SDS_P1;SDS_P2;PMS_P1;PMS_P2;Temp;Humidity;BMP_temperature;BMP_pressure;BME280_temperature;BME280_humidity;BME280_pressure;Samples;Min_cycle;Max_cycle;Signal;HPM_P1;HPM_P2
2021/12/15 00:02:23;;;;;;;31.80;6.90;;;;;;;9.89;100.00;102773.97;5071539;28;20050;-38
2021/12/15 00:04:54;;;;;;;23.80;6.15;;;;;;;9.87;100.00;102765.84;5072200;28;20080;-40
2021/12/15 00:07:25;;;;;;;26.60;6.55;;;;;;;9.87;100.00;102763.06;5072357;28;20040;-31
2021/12/15 00:09:53;;;;;;;29.27;6.55;;;;;;;9.87;100.00;102763.06;5071725;28;20044;-35
2021/12/15 00:12:22;;;;;;;25.63;6.95;;;;;;;9.87;100.00;102768.66;5072100;28;20040;-35
2021/12/15 00:14:50;;;;;;;25.05;7.45;;;;;;;9.85;100.00;102768.03;5071835;28;20064;-36
2021/12/15 00:17:19;;;;;;;29.60;7.70;;;;;;;9.82;100.00;102759.31;5071500;28;20044;-32
2021/12/15 00:19:48;;;;;;;29.77;8.07;;;;;;;9.80;100.00;102762.34;5068592;28;20044;-33
2021/12/15 00:22:16;;;;;;;25.90;6.97;;;;;;;9.80;100.00;102772.66;5055626;28;20040;-34
2021/12/15 00:24:44;;;;;;;29.88;7.60;;;;;;;9.81;100.00;102766.84;5071187;28;20139;-29
2021/12/15 00:27:12;;;;;;;32.22;8.32;;;;;;;9.80;100.00;102767.94;5071650;28;20048;-38
2021/12/15 00:29:40;;;;;;;23.60;7.40;;;;;;;9.79;100.00;102766.25;5068143;28;20044;-35
2021/12/15 00:32:08;;;;;;;28.42;8.50;;;;;;;9.80;100.00;102772.66;5069916;28;20053;-34
2021/12/15 00:34:40;;;;;;;25.80;7.80;;;;;;;9.80;100.00;102778.25;5071399;28;20059;-34
2021/12/15 00:37:10;;;;;;;26.00;7.55;;;;;;;9.79;100.00;102774.59;5071779;28;20056;-38
2021/12/15 00:39:38;;;;;;;26.80;8.15;;;;;;;9.77;100.00;102774.03;5070619;28;20044;-35
2021/12/15 00:42:06;;;;;;;31.83;8.25;;;;;;;9.75;100.00;102765.06;5071403;28;20066;-30
2021/12/15 00:44:33;;;;;;;30.90;7.78;;;;;;;9.74;100.00;102763.38;5070917;28;20040;-31
2021/12/15 00:47:02;;;;;;;30.38;7.25;;;;;;;9.74;100.00;102754.16;5071810;28;20056;-34
2021/12/15 00:49:33;;;;;;;23.05;6.38;;;;;;;9.75;100.00;102758.66;5071044;28;20494;-38
2021/12/15 00:52:02;;;;;;;31.15;6.93;;;;;;;9.73;100.00;102770.03;5070835;28;20050;-38
2021/12/15 00:54:31;;;;;;;32.60;7.82;;;;;;;9.73;100.00;102761.69;5069587;28;20099;-36
2021/12/15 00:57:00;;;;;;;29.35;7.35;;;;;;;9.74;100.00;102768.94;5071718;28;20127;-35
2021/12/15 00:59:30;;;;;;;26.60;6.50;;;;;;;9.77;100.00;102773.19;5070512;28;20059;-33
2021/12/15 01:01:58;;;;;;;23.52;6.80;;;;;;;9.76;100.00;102763.97;5071345;28;20037;-34
2021/12/15 01:04:29;;;;;;;29.77;6.57;;;;;;;9.78;100.00;102763.72;5070992;28;20131;-37
2021/12/15 01:07:03;;;;;;;23.30;6.25;;;;;;;9.79;100.00;102762.63;5071084;28;20259;-36
2021/12/15 01:09:36;;;;;;;27.92;7.00;;;;;;;9.76;100.00;102772.34;5071268;28;20606;-38
2021/12/15 01:12:14;;;;;;;35.40;8.20;;;;;;;9.78;100.00;102769.31;5071246;28;20052;-36
2021/12/15 01:20:25;;;;;;;30.42;7.68;;;;;;;9.75;100.00;102769.78;5070356;28;20501;-40
2021/12/15 01:22:56;;;;;;;22.27;6.35;;;;;;;9.75;100.00;102762.28;5071370;28;20123;-37
2021/12/15 01:25:29;;;;;;;24.65;6.28;;;;;;;9.76;100.00;102775.13;5070721;28;20131;-35
2021/12/15 01:27:57;;;;;;;26.73;7.25;;;;;;;9.78;100.00;102774.88;5070867;28;20051;-39
2021/12/15 01:30:30;;;;;;;27.17;6.75;;;;;;;9.79;100.00;102780.19;5070510;28;20047;-34
2021/12/15 01:32:59;;;;;;;24.30;6.07;;;;;;;9.80;100.00;102781.88;5068645;28;20466;-35
2021/12/15 01:35:28;;;;;;;25.00;6.20;;;;;;;9.80;100.00;102781.88;5070143;28;20123;-38
2021/12/15 01:37:57;;;;;;;24.73;6.40;;;;;;;9.80;100.00;102772.66;5070744;28;20036;-32
2021/12/15 01:40:33;;;;;;;21.73;5.68;;;;;;;9.81;100.00;102775.22;5070639;28;20098;-34
2021/12/15 01:43:04;;;;;;;29.73;6.43;;;;;;;9.82;100.00;102764.91;5069090;28;20423;-31
2021/12/15 01:48:17;;;;;;;20.23;5.70;;;;;;;9.83;100.00;102781.38;5070481;28;20055;-34
2021/12/15 01:50:50;;;;;;;19.42;5.88;;;;;;;9.85;100.00;102781.13;5069226;28;20056;-40
2021/12/15 01:53:18;;;;;;;23.23;5.18;;;;;;;9.84;100.00;102776.66;5070551;28;20060;-37
2021/12/15 01:55:49;;;;;;;21.45;5.55;;;;;;;9.87;100.00;102779.81;5070199;28;20045;-38
2021/12/15 01:58:17;;;;;;;21.08;5.65;;;;;;;9.87;100.00;102768.66;5069199;28;20053;-32
2021/12/15 02:00:49;;;;;;;22.33;4.93;;;;;;;9.93;100.00;102773.25;5069491;28;20560;-30
2021/12/15 02:03:17;;;;;;;;;;;;;;;9.89;100.00;102777.63;5070124;28;20052;-38
2021/12/15 02:05:47;;;;;;;20.98;4.53;;;;;;;9.90;100.00;102784.88;5074738;28;19966;-41
2021/12/15 02:08:15;;;;;;;17.90;4.13;;;;;;;9.92;100.00;102779.91;5074520;28;20055;-38
2021/12/15 02:10:44;;;;;;;18.15;4.57;;;;;;;9.93;100.00;102784.41;5073819;28;20127;-39
2021/12/15 02:13:18;;;;;;;25.27;5.18;;;;;;;9.96;100.00;102780.28;5072969;28;20056;-42
2021/12/15 02:15:48;;;;;;;20.60;4.70;;;;;;;9.95;100.00;102781.38;5074512;28;20050;-37
2021/12/15 02:18:18;;;;;;;23.55;4.72;;;;;;;9.94;100.00;102794.47;5070695;28;20059;-36
2021/12/15 02:20:50;;;;;;;17.02;3.88;;;;;;;9.94;100.00;102791.69;5072924;28;20052;-38
2021/12/15 02:23:21;;;;;;;22.58;4.38;;;;;;;9.95;100.00;102789.72;5071172;28;20052;-35
2021/12/15 02:25:50;;;;;;;20.23;4.20;;;;;;;9.93;100.00;102794.72;5073017;28;20095;-35
2021/12/15 02:28:18;;;;;;;17.58;3.97;;;;;;;9.90;100.00;102796.03;5072330;28;20054;-34
2021/12/15 02:30:57;;;;;;;23.02;4.18;;;;;;;9.91;100.00;102800.53;5072067;28;20064;-38
2021/12/15 02:33:46;;;;;;;12.85;3.58;;;;;;;9.92;100.00;102802.22;5074068;28;20401;-33
2021/12/15 02:39:10;;;;;;;21.60;4.22;;;;;;;9.85;100.00;102797.88;5044916;28;20055;-38
2021/12/15 02:41:39;;;;;;;17.70;4.00;;;;;;;9.83;100.00;102812.06;5072341;28;20052;-35
2021/12/15 02:44:10;;;;;;;23.30;4.38;;;;;;;9.83;100.00;102809.28;5071838;28;20075;-36
2021/12/15 02:46:39;;;;;;;23.88;4.97;;;;;;;9.85;100.00;102800.66;5074590;28;20393;-38
2021/12/15 02:49:09;;;;;;;19.42;4.00;;;;;;;9.86;100.00;102806.00;5073482;28;20508;-34
2021/12/15 02:51:40;;;;;;;21.02;4.80;;;;;;;9.91;100.00;102796.88;5073539;28;20515;-33
2021/12/15 02:54:11;;;;;;;16.98;4.00;;;;;;;9.93;100.00;102803.91;5073584;28;20045;-38
2021/12/15 02:56:40;;;;;;;21.50;4.40;;;;;;;9.94;100.00;102805.63;5074027;28;20052;-31
2021/12/15 02:59:09;;;;;;;19.70;3.92;;;;;;;9.98;100.00;102792.03;5072604;28;20053;-35
2021/12/15 03:01:54;;;;;;;15.98;4.30;;;;;;;9.99;100.00;102808.47;5073604;28;20053;-29
2021/12/15 03:04:34;;;;;;;16.10;4.65;;;;;;;10.01;100.00;102814.66;5073366;28;20393;-35
2021/12/15 03:07:11;;;;;;;21.00;4.10;;;;;;;10.01;100.00;102811.88;5073229;28;20044;-38
2021/12/15 03:15:33;;;;;;;16.45;4.25;;;;;;;10.01;100.00;102805.44;5073508;28;20047;-36
2021/12/15 03:18:05;;;;;;;19.00;4.43;;;;;;;9.98;100.00;102809.59;5073091;28;20058;-40
2021/12/15 03:20:37;;;;;;;17.17;4.55;;;;;;;10.03;100.00;102808.84;5072882;28;20136;-40
2021/12/15 03:23:09;;;;;;;23.45;4.85;;;;;;;10.03;100.00;102812.47;5073317;28;20055;-40
2021/12/15 03:25:37;;;;;;;20.63;4.53;;;;;;;10.04;100.00;102802.16;5073264;28;20067;-34
2021/12/15 03:33:43;;;;;;;23.15;5.45;;;;;;;10.00;100.00;102806.53;5055646;28;20452;-35
2021/12/15 03:36:23;;;;;;;18.92;4.80;;;;;;;9.99;100.00;102805.69;5072851;28;20497;-38
2021/12/15 03:38:52;;;;;;;21.48;5.22;;;;;;;9.95;100.00;102809.25;5056588;28;20040;-36
2021/12/15 03:41:23;;;;;;;21.90;5.20;;;;;;;9.93;100.00;102814.22;5072294;28;20056;-35
2021/12/15 03:43:51;;;;;;;23.85;5.15;;;;;;;9.92;100.00;102815.31;5072810;28;20076;-36
2021/12/15 03:46:18;;;;;;;16.92;5.03;;;;;;;9.90;100.00;102821.13;5072888;28;20432;-37
2021/12/15 03:48:46;;;;;;;17.95;4.63;;;;;;;9.89;100.00;102815.81;5072078;28;20480;-40
2021/12/15 03:51:15;;;;;;;28.05;5.90;;;;;;;9.84;100.00;102813.75;5071495;28;20036;-38
2021/12/15 03:53:43;;;;;;;22.88;5.53;;;;;;;9.83;100.00;102812.06;5072947;28;20092;-35
2021/12/15 03:56:14;;;;;;;21.13;5.75;;;;;;;9.82;100.00;102815.94;5071747;28;20045;-40
2021/12/15 03:58:43;;;;;;;25.70;5.57;;;;;;;9.82;100.00;102809.50;5072788;28;20489;-37
2021/12/15 04:01:14;;;;;;;22.27;5.47;;;;;;;9.82;100.00;102815.94;5071891;28;20041;-30
2021/12/15 04:03:45;;;;;;;19.03;4.53;;;;;;;9.82;100.00;102820.66;5071113;28;20314;-33
2021/12/15 04:06:17;;;;;;;19.20;4.53;;;;;;;9.82;100.00;102824.31;5071957;28;20516;-38
2021/12/15 04:08:45;;;;;;;17.70;5.30;;;;;;;9.81;100.00;102830.13;5072009;28;20139;-37
2021/12/15 04:11:18;;;;;;;29.58;5.90;;;;;;;9.83;100.00;102828.78;5072099;28;20053;-30
2021/12/15 04:13:47;;;;;;;15.93;4.78;;;;;;;9.83;100.00;102827.94;5072347;28;20051;-35
2021/12/15 04:16:38;;;;;;;21.42;4.75;;;;;;;9.84;100.00;102829.63;5071026;28;20054;-34
2021/12/15 04:19:06;;;;;;;17.77;5.07;;;;;;;9.83;100.00;102827.94;5063310;28;20131;-41
2021/12/15 04:21:35;;;;;;;19.95;4.80;;;;;;;9.84;100.00;102830.47;5072048;28;20424;-40
2021/12/15 04:24:03;;;;;;;14.77;4.15;;;;;;;9.84;100.00;102822.13;5071831;28;20520;-39
2021/12/15 04:26:32;;;;;;;16.67;4.85;;;;;;;9.84;100.00;102824.91;5071138;28;20048;-33
2021/12/15 04:29:02;;;;;;;17.85;4.57;;;;;;;9.86;100.00;102822.72;5071806;28;20048;-37
2021/12/15 04:31:33;;;;;;;19.02;4.80;;;;;;;9.85;100.00;102823.81;5071175;28;20043;-36
2021/12/15 04:34:04;;;;;;;12.73;4.35;;;;;;;9.86;100.00;102822.72;5072029;28;20056;-35
2021/12/15 04:36:36;;;;;;;17.40;4.32;;;;;;;9.88;100.00;102823.31;5070982;28;20048;-34
2021/12/15 04:39:06;;;;;;;19.02;4.15;;;;;;;9.86;100.00;102822.72;5068486;28;20074;-36
2021/12/15 04:41:36;;;;;;;11.45;4.07;;;;;;;9.87;100.00;102818.84;5071152;28;20374;-34
2021/12/15 04:44:10;;;;;;;18.10;4.25;;;;;;;9.87;100.00;102830.00;5069945;28;20135;-37
2021/12/15 04:46:40;;;;;;;14.98;4.18;;;;;;;9.88;100.00;102831.69;5071753;28;20060;-35
2021/12/15 04:49:11;;;;;;;15.38;4.28;;;;;;;9.88;100.00;102840.06;5071478;28;20046;-37
2021/12/15 04:51:39;;;;;;;17.83;4.45;;;;;;;9.88;100.00;102840.06;5070770;28;20047;-34
2021/12/15 04:54:07;;;;;;;16.42;4.43;;;;;;;9.89;100.00;102832.53;5071714;28;20052;-34
2021/12/15 04:56:37;;;;;;;15.60;3.90;;;;;;;9.89;100.00;102838.97;5071099;28;20508;-41
2021/12/15 04:59:05;;;;;;;13.23;3.75;;;;;;;9.91;100.00;102830.34;5067771;28;20409;-37
2021/12/15 05:01:33;;;;;;;16.38;4.28;;;;;;;9.88;100.00;102833.63;5054539;28;20041;-33
2021/12/15 05:04:01;;;;;;;16.23;3.95;;;;;;;9.89;100.00;102838.97;5071140;28;20078;-35
2021/12/15 05:06:29;;;;;;;14.45;3.40;;;;;;;9.87;100.00;102835.56;5070484;28;20523;-34
2021/12/15 05:08:56;;;;;;;12.45;3.40;;;;;;;9.89;100.00;102838.13;5070986;28;20037;-36
2021/12/15 05:11:24;;;;;;;16.73;3.40;;;;;;;9.89;100.00;102835.34;5071125;28;20048;-32
2021/12/15 05:13:53;;;;;;;17.95;3.45;;;;;;;9.91;100.00;102842.34;5070382;28;20045;-36
2021/12/15 05:16:21;;;;;;;16.80;3.90;;;;;;;9.91;100.00;102841.50;5071340;28;20059;-38
2021/12/15 05:18:50;;;;;;;14.40;3.08;;;;;;;9.93;100.00;102840.19;5070173;28;20433;-34
2021/12/15 05:21:22;;;;;;;11.82;3.15;;;;;;;9.95;100.00;102835.19;5071012;28;20045;-33
2021/12/15 05:23:55;;;;;;;13.25;2.78;;;;;;;9.97;100.00;102844.16;5071102;28;20062;-35
2021/12/15 05:26:23;;;;;;;13.32;2.97;;;;;;;9.96;100.00;102842.47;5070644;28;20505;-34
2021/12/15 05:28:52;;;;;;;16.23;3.50;;;;;;;9.95;100.00;102849.16;5070596;28;20045;-35
2021/12/15 05:31:21;;;;;;;12.32;2.70;;;;;;;9.98;100.00;102845.88;5071071;28;20072;-34
2021/12/15 05:33:48;;;;;;;12.38;2.97;;;;;;;9.97;100.00;102846.09;5070130;28;20071;-34
2021/12/15 05:36:16;;;;;;;10.68;2.45;;;;;;;9.97;100.00;102848.91;5069265;28;20408;-35
2021/12/15 05:38:44;;;;;;;12.60;3.00;;;;;;;9.96;100.00;102850.84;5069992;28;20052;-35
2021/12/15 05:41:12;;;;;;;11.15;2.42;;;;;;;9.96;100.00;102845.25;5070295;28;20041;-35
2021/12/15 05:43:39;;;;;;;15.50;3.63;;;;;;;9.96;100.00;102844.41;5070868;28;20079;-37
2021/12/15 05:46:09;;;;;;;13.35;2.80;;;;;;;9.97;100.00;102846.09;5069611;28;20060;-41
2021/12/15 05:48:36;;;;;;;12.85;3.08;;;;;;;9.95;100.00;102840.78;5070337;28;20049;-41
2021/12/15 05:51:07;;;;;;;10.98;2.60;;;;;;;9.95;100.00;102845.50;5070790;28;20044;-35
2021/12/15 05:53:35;;;;;;;15.10;2.95;;;;;;;9.93;100.00;102840.19;5070423;28;20056;-39
2021/12/15 05:56:03;;;;;;;14.57;2.65;;;;;;;9.95;100.00;102842.72;5069930;28;20409;-41
2021/12/15 05:58:32;;;;;;;11.20;2.35;;;;;;;9.96;100.00;102845.25;5069167;28;20048;-37
2021/12/15 06:01:00;;;;;;;20.27;2.50;;;;;;;9.97;100.00;102846.97;5070153;28;20053;-39
2021/12/15 06:03:29;;;;;;;13.30;2.88;;;;;;;9.98;100.00;102845.88;5070788;28;20044;-40
2021/12/15 06:05:57;;;;;;;18.15;2.53;;;;;;;10.00;100.00;102851.16;5070577;28;20049;-37
2021/12/15 06:08:24;;;;;;;10.23;2.40;;;;;;;9.98;100.00;102859.81;5069792;28;20049;-35
2021/12/15 06:10:53;;;;;;;15.45;2.88;;;;;;;9.98;100.00;102854.22;5069025;28;20052;-33
2021/12/15 06:13:22;;;;;;;12.05;2.55;;;;;;;9.98;100.00;102861.75;5070754;28;20053;-38
2021/12/15 06:15:51;;;;;;;11.60;2.58;;;;;;;9.98;100.00;102861.75;5069581;28;20044;-34
2021/12/15 06:18:20;;;;;;;13.30;2.50;;;;;;;9.98;100.00;102867.34;5070738;28;20049;-32
2021/12/15 06:20:51;;;;;;;13.85;2.83;;;;;;;9.98;100.00;102867.34;5070008;28;20052;-31
2021/12/15 06:23:21;;;;;;;11.70;2.42;;;;;;;9.97;100.00;102868.44;5070267;28;20059;-32
2021/12/15 06:25:51;;;;;;;9.95;2.20;;;;;;;9.99;100.00;102872.63;5069971;28;20091;-40
2021/12/15 06:28:20;;;;;;;15.43;2.67;;;;;;;9.97;100.00;102880.44;5070591;28;20067;-30
2021/12/15 06:30:48;;;;;;;15.07;2.83;;;;;;;9.99;100.00;102881.00;5069754;28;20063;-34
2021/12/15 06:33:16;;;;;;;10.68;2.20;;;;;;;9.99;100.00;102883.78;5059339;28;20490;-34
2021/12/15 06:35:52;;;;;;;8.48;2.72;;;;;;;9.99;100.00;102892.16;5069965;28;20044;-29
2021/12/15 06:38:23;;;;;;;16.52;2.70;;;;;;;9.99;100.00;102883.78;5069806;28;20059;-42
2021/12/15 06:40:51;;;;;;;11.55;2.30;;;;;;;10.01;100.00;102887.19;5070089;28;20408;-40
2021/12/15 06:43:19;;;;;;;12.23;2.45;;;;;;;10.02;100.00;102893.59;5069581;28;20059;-36
2021/12/15 06:45:59;;;;;;;13.90;2.90;;;;;;;10.01;100.00;102903.91;5068244;28;20041;-37
2021/12/15 06:59:33;;;;;;;15.63;3.60;;;;;;;9.95;100.00;102890.97;5073645;28;20083;-34
2021/12/15 07:02:01;;;;;;;15.43;3.60;;;;;;;9.96;100.00;102889.88;5072994;28;20045;-32
2021/12/15 07:04:29;;;;;;;13.57;3.40;;;;;;;9.98;100.00;102887.69;5072992;28;20048;-38
2021/12/15 07:06:57;;;;;;;11.95;3.03;;;;;;;9.98;100.00;102886.84;5072957;28;20068;-33
2021/12/15 07:09:27;;;;;;;13.10;3.40;;;;;;;9.95;100.00;102898.50;5073234;28;20061;-33
2021/12/15 07:11:55;;;;;;;13.32;2.92;;;;;;;9.97;100.00;102894.38;5071565;28;20433;-37
2021/12/15 07:14:23;;;;;;;13.10;3.17;;;;;;;9.97;100.00;102888.78;5068661;28;20053;-34
2021/12/15 07:16:52;;;;;;;10.73;2.80;;;;;;;9.99;100.00;102883.78;5072018;28;20055;-30
2021/12/15 07:19:31;;;;;;;12.52;3.30;;;;;;;9.98;100.00;102886.84;5071572;28;20052;-31
2021/12/15 07:22:09;;;;;;;14.70;3.42;;;;;;;9.97;100.00;102880.44;5071716;28;20040;-38
2021/12/15 07:24:38;;;;;;;11.98;3.15;;;;;;;9.98;100.00;102887.69;5069056;28;20052;-32
2021/12/15 07:27:09;;;;;;;10.32;3.30;;;;;;;9.94;100.00;102878.13;5071089;28;20047;-32
2021/12/15 07:29:37;;;;;;;11.85;3.20;;;;;;;9.88;100.00;102884.69;5070941;28;20049;-31
2021/12/15 07:32:06;;;;;;;15.57;3.45;;;;;;;9.88;100.00;102887.47;5069684;28;20056;-43
2021/12/15 07:34:33;;;;;;;13.30;2.65;;;;;;;9.89;100.00;102889.16;5071010;28;20417;-41
2021/12/15 07:37:01;;;;;;;10.27;2.50;;;;;;;9.87;100.00;102894.13;5071283;28;20063;-34
2021/12/15 07:39:29;;;;;;;10.73;2.45;;;;;;;9.87;100.00;102893.28;5070411;28;20572;-34
2021/12/15 07:42:06;;;;;;;5.88;2.10;;;;;;;9.85;100.00;102899.09;5070934;28;20106;-40
2021/12/15 07:44:34;;;;;;;10.07;2.17;;;;;;;9.86;100.00;102902.75;5070923;28;20059;-36
2021/12/15 07:47:03;;;;;;;8.15;2.13;;;;;;;9.83;100.00;102906.84;5053557;28;20574;-35
2021/12/15 07:49:32;;;;;;;9.70;2.08;;;;;;;9.82;100.00;102904.31;5070777;28;20136;-33
2021/12/15 07:52:02;;;;;;;5.28;1.70;;;;;;;9.81;100.00;102908.19;5070064;28;20048;-37
2021/12/15 07:54:34;;;;;;;8.77;1.80;;;;;;;9.80;100.00;102910.13;5066392;28;20041;-39
2021/12/15 07:57:07;;;;;;;11.23;2.03;;;;;;;9.80;100.00;102915.72;5070461;28;20057;-35
2021/12/15 07:59:35;;;;;;;7.63;1.67;;;;;;;9.80;100.00;102903.72;5068094;28;20528;-38
2021/12/15 08:02:04;;;;;;;7.63;1.58;;;;;;;9.85;100.00;102909.41;5069539;28;20049;-31
2021/12/15 08:04:32;;;;;;;7.93;1.70;;;;;;;9.85;100.00;102918.63;5069941;28;20063;-36
2021/12/15 08:07:00;;;;;;;10.48;2.25;;;;;;;9.87;100.00;102912.81;5071278;28;20055;-36
2021/12/15 08:09:28;;;;;;;11.48;2.00;;;;;;;9.90;100.00;102918.75;5070164;28;20041;-39
2021/12/15 08:11:56;;;;;;;6.55;1.70;;;;;;;9.90;100.00;102912.31;5071005;28;20052;-39
2021/12/15 08:14:29;;;;;;;8.25;1.70;;;;;;;9.91;100.00;102905.66;5070143;28;20036;-38
2021/12/15 08:16:57;;;;;;;13.05;2.50;;;;;;;9.88;100.00;102906.13;5071083;28;20052;-36
2021/12/15 08:19:25;;;;;;;12.57;2.67;;;;;;;9.92;100.00;102910.13;5070085;28;20043;-35
2021/12/15 08:21:53;;;;;;;7.95;1.48;;;;;;;9.95;100.00;102915.22;5059228;28;20044;-33
2021/12/15 08:24:21;;;;;;;8.35;1.67;;;;;;;9.93;100.00;102904.31;5069995;28;20045;-35
2021/12/15 08:26:49;;;;;;;6.22;1.83;;;;;;;9.94;100.00;102917.16;5070952;28;20056;-40
2021/12/15 08:29:16;;;;;;;10.43;2.17;;;;;;;9.94;100.00;102919.97;5069580;28;20050;-40
2021/12/15 08:31:45;;;;;;;10.50;2.70;;;;;;;9.97;100.00;102919.47;5068504;28;20139;-35
2021/12/15 08:34:13;;;;;;;10.52;2.17;;;;;;;10.00;100.00;102929.25;5068524;28;20413;-41
2021/12/15 08:36:42;;;;;;;12.93;2.50;;;;;;;10.03;100.00;102935.22;5069379;28;20044;-35
2021/12/15 08:39:12;;;;;;;13.98;2.50;;;;;;;10.05;100.00;102939.69;5070022;28;20512;-35
2021/12/15 08:41:40;;;;;;;11.05;2.47;;;;;;;10.07;100.00;102945.88;5069913;28;20052;-35
2021/12/15 08:44:09;;;;;;;10.63;2.72;;;;;;;10.08;100.00;102940.06;5069606;28;20140;-35
2021/12/15 08:46:41;;;;;;;11.68;3.08;;;;;;;10.09;100.00;102941.75;5070012;28;20048;-34
2021/12/15 08:49:12;;;;;;;;;;;;;;;10.04;100.00;102936.06;5069489;28;20054;-35
2021/12/15 08:51:40;;;;;;;13.77;2.30;;;;;;;10.01;100.00;102951.34;5069659;28;19924;-34
2021/12/15 08:54:14;;;;;;;13.85;2.97;;;;;;;10.07;100.00;102949.53;5070273;28;20139;-34
2021/12/15 08:56:42;;;;;;;11.20;3.03;;;;;;;10.09;100.00;102950.13;5069647;28;20059;-34
2021/12/15 08:59:10;;;;;;;12.48;2.55;;;;;;;10.08;100.00;102950.38;5069267;28;20052;-31
2021/12/15 09:01:38;;;;;;;9.88;3.10;;;;;;;10.07;100.00;102957.03;5067889;28;20041;-36
2021/12/15 09:04:06;;;;;;;11.38;2.35;;;;;;;10.09;100.00;102957.66;5048927;28;20056;-36
2021/12/15 09:06:38;;;;;;;13.18;2.63;;;;;;;10.11;100.00;102955.47;5068961;28;20040;-38
2021/12/15 09:09:08;;;;;;;11.35;2.45;;;;;;;10.09;100.00;102955.69;5070062;28;20395;-34
2021/12/15 09:11:37;;;;;;;11.50;2.40;;;;;;;10.12;100.00;102954.38;5067463;28;20058;-39
2021/12/15 09:14:06;;;;;;;11.00;2.17;;;;;;;10.12;100.00;102963.59;5069386;28;20052;-39
2021/12/15 09:16:35;;;;;;;13.63;2.42;;;;;;;10.13;100.00;102967.22;5068830;28;20044;-39
2021/12/15 09:19:05;;;;;;;8.90;2.25;;;;;;;10.17;100.00;102974.03;5069570;28;20036;-31
2021/12/15 09:21:34;;;;;;;16.05;2.70;;;;;;;10.17;100.00;102982.38;5068643;28;20044;-36
2021/12/15 09:24:06;;;;;;;10.95;2.40;;;;;;;10.19;100.00;102989.44;5069487;28;20409;-31
2021/12/15 09:26:36;;;;;;;12.25;2.70;;;;;;;10.19;100.00;102983.84;5068622;28;20059;-36
2021/12/15 09:29:05;;;;;;;13.57;2.85;;;;;;;10.17;100.00;102996.34;5069454;28;20420;-33
2021/12/15 09:31:33;;;;;;;8.23;1.80;;;;;;;10.12;100.00;102985.91;5067795;28;20056;-34
2021/12/15 09:34:02;;;;;;;11.73;2.03;;;;;;;10.11;100.00;102988.94;5069438;28;20044;-36
2021/12/15 09:36:31;;;;;;;9.35;1.70;;;;;;;10.11;100.00;102988.94;5069313;28;20093;-33
2021/12/15 09:39:02;;;;;;;8.48;2.03;;;;;;;10.08;100.00;102995.84;5067755;28;20292;-34
2021/12/15 09:41:31;;;;;;;9.43;1.60;;;;;;;10.07;100.00;102990.50;5068808;28;20045;-33
2021/12/15 09:44:06;;;;;;;11.40;1.73;;;;;;;10.08;100.00;102990.28;5069036;28;20047;-34
2021/12/15 09:46:41;;;;;;;7.30;1.50;;;;;;;10.09;100.00;102993.91;5068539;28;20048;-35
2021/12/15 09:57:49;;;;;;;10.10;1.67;;;;;;;10.06;100.00;103005.53;5070029;28;20028;-36
2021/12/15 10:03:16;;;;;;;8.57;1.45;;;;;;;10.08;100.00;103006.16;5029745;28;20132;-32
2021/12/15 10:05:52;;;;;;;6.53;1.20;;;;;;;10.11;100.00;103005.69;5070853;28;20139;-36
2021/12/15 10:11:41;;;;;;;9.85;1.85;;;;;;;10.15;100.00;103007.75;5070727;28;20078;-40
2021/12/15 10:19:46;;;;;;;7.10;1.50;;;;;;;10.18;100.00;103015.63;5068583;28;20040;-35
2021/12/15 10:22:29;;;;;;;10.05;1.67;;;;;;;10.19;100.00;103025.69;5068619;28;20044;-41
2021/12/15 10:25:01;;;;;;;7.22;1.60;;;;;;;10.22;100.00;103016.00;5070805;28;20056;-35
2021/12/15 10:27:39;;;;;;;4.97;1.42;;;;;;;10.22;100.00;103016.84;5073987;28;20432;-39
2021/12/15 10:30:18;;;;;;;6.82;1.67;;;;;;;10.22;100.00;103004.84;5070008;28;20048;-33
2021/12/15 10:32:48;;;;;;;5.70;1.40;;;;;;;10.23;100.00;103009.31;5073883;28;20047;-33
2021/12/15 10:35:22;;;;;;;7.40;1.70;;;;;;;10.26;100.00;103006.91;5073135;28;20234;-39
2021/12/15 10:38:15;;;;;;;9.13;1.60;;;;;;;10.27;100.00;103013.31;5057884;28;20047;-39
2021/12/15 10:40:45;;;;;;;6.20;1.60;;;;;;;10.26;100.00;103023.63;5072685;28;20052;-33
2021/12/15 10:43:14;;;;;;;7.05;1.38;;;;;;;10.28;100.00;103027.03;5073416;28;20082;-35
2021/12/15 10:45:46;;;;;;;4.68;1.20;;;;;;;10.30;100.00;103019.28;5073710;28;20563;-33
2021/12/15 10:48:25;;;;;;;5.85;1.10;;;;;;;10.29;100.00;103023.16;5073624;28;20051;-33
2021/12/15 10:50:54;;;;;;;4.50;1.00;;;;;;;10.31;100.00;103012.59;5070725;28;20048;-36
2021/12/15 10:53:34;;;;;;;4.95;1.02;;;;;;;10.32;100.00;103016.25;5073553;28;20414;-31
2021/12/15 10:56:10;;;;;;;5.93;1.10;;;;;;;10.36;100.00;103017.47;5069701;28;20083;-38
2021/12/15 10:58:41;;;;;;;8.75;1.58;;;;;;;10.34;100.00;103025.22;5073058;28;20051;-37
2021/12/15 11:01:36;;;;;;;8.65;1.30;;;;;;;10.35;100.00;103022.19;5070064;28;20485;-35
2021/12/15 11:04:20;;;;;;;8.55;1.70;;;;;;;10.35;100.00;103027.78;5072843;28;20055;-34
2021/12/15 11:07:02;;;;;;;7.50;1.40;;;;;;;10.35;100.00;103022.19;5073433;28;20049;-35
2021/12/15 11:09:34;;;;;;;5.13;1.20;;;;;;;10.33;100.00;103012.34;5073448;28;20063;-36
2021/12/15 11:12:05;;;;;;;4.18;1.13;;;;;;;10.34;100.00;103009.31;5072283;28;20059;-35
2021/12/15 11:14:36;;;;;;;6.60;1.27;;;;;;;10.35;100.00;103011.03;5073505;28;20044;-30
2021/12/15 11:17:11;;;;;;;9.02;1.50;;;;;;;10.34;100.00;103008.47;5073186;28;20154;-33
2021/12/15 11:19:45;;;;;;;5.57;1.10;;;;;;;10.32;100.00;103007.88;5072925;28;20041;-35
2021/12/15 11:22:43;;;;;;;7.85;1.30;;;;;;;10.33;100.00;103004.84;5073217;28;20051;-38
2021/12/15 11:25:18;;;;;;;7.93;1.27;;;;;;;10.32;100.00;103008.72;5072538;28;20237;-32
2021/12/15 11:27:49;;;;;;;5.45;1.10;;;;;;;10.33;100.00;103009.56;5070461;28;20397;-41
2021/12/15 11:30:24;;;;;;;5.78;1.38;;;;;;;10.37;100.00;103012.72;5072068;28;20507;-35
2021/12/15 11:32:56;;;;;;;6.65;1.40;;;;;;;10.38;100.00;103008.84;5072538;28;20508;-34
2021/12/15 11:35:27;;;;;;;5.40;1.10;;;;;;;10.38;100.00;103008.84;5072826;28;20068;-35
2021/12/15 11:37:59;;;;;;;5.88;1.20;;;;;;;10.40;100.00;103012.19;5072739;28;20040;-36
2021/12/15 11:40:31;;;;;;;10.18;1.75;;;;;;;10.38;100.00;103011.63;5072406;28;20048;-35
2021/12/15 11:42:59;;;;;;;;;;;;;;;10.32;100.00;103005.06;5073368;28;20136;-35
2021/12/15 11:45:28;;;;;;;5.22;1.00;;;;;;;10.30;100.00;103012.84;5072731;28;19920;-36
2021/12/15 11:48:17;;;;;;;4.93;1.00;;;;;;;10.35;100.00;103016.59;5072706;28;20056;-33
2021/12/15 11:50:47;;;;;;;6.85;1.10;;;;;;;10.38;100.00;103009.69;5072703;28;20040;-36
2021/12/15 11:53:32;;;;;;;3.17;0.80;;;;;;;10.42;100.00;103010.88;5072041;28;20052;-35
2021/12/15 11:56:20;;;;;;;7.05;1.45;;;;;;;10.42;100.00;102996.91;5072393;28;20045;-37
2021/12/15 11:58:49;;;;;;;6.93;1.10;;;;;;;10.44;100.00;103003.09;5072499;28;20041;-37
2021/12/15 12:01:40;;;;;;;5.43;1.10;;;;;;;10.50;100.00;102993.75;5071639;28;20416;-31
2021/12/15 12:04:17;;;;;;;5.63;1.00;;;;;;;10.52;100.00;102994.34;5071249;28;20547;-39
2021/12/15 12:06:48;;;;;;;8.20;1.30;;;;;;;10.55;100.00;102988.28;5071586;28;20045;-33
2021/12/15 12:09:18;;;;;;;6.90;1.33;;;;;;;10.67;100.00;102996.59;5072292;28;20048;-34
2021/12/15 12:11:50;;;;;;;6.32;1.10;;;;;;;10.70;100.00;103002.56;5072286;28;20047;-36
2021/12/15 12:14:37;;;;;;;5.40;1.00;;;;;;;10.71;100.00;103009.00;5072018;28;20041;-40
2021/12/15 12:17:11;;;;;;;5.38;1.00;;;;;;;10.69;100.00;103005.59;5071911;28;20048;-36
2021/12/15 12:19:48;;;;;;;6.20;1.05;;;;;;;10.69;100.00;103006.44;5072169;28;20094;-36
2021/12/15 12:22:17;;;;;;;5.55;1.13;;;;;;;10.68;100.00;103010.31;5071213;28;20040;-36
2021/12/15 12:24:48;;;;;;;4.30;1.10;;;;;;;10.67;100.00;103005.84;5072067;28;20127;-38
2021/12/15 12:27:16;;;;;;;11.57;1.20;;;;;;;10.66;100.00;103006.94;5071770;28;20145;-42
2021/12/15 12:29:44;;;;;;;7.03;1.10;;;;;;;10.68;100.00;102995.50;5071092;28;20105;-33